Station Historical Data
Daily Summary for May 23, 2017 Units:  English    Metric   Both
« Previous Day
Next Day »
Daily Weekly Monthly Yearly Custom
  High: Low: Average:
Temperature: 75.1 °F 45.5 °F 61.8 °F
Dew Point: 53.8 °F 41.8 °F 48.1 °F
Humidity: 88% 40% 63%
Wind Speed: 10.0mph 0.0mph 2.4mph
Wind Gust: 15.0mph - -
Wind- - South
Pressure: 29.98 in 29.73 in -
Precipitation: 0.00 in    
Historical Graphs
 
 
Tabular Data for May 23, 2017
Time Temperature Dew Point Pressure Wind Wind Speed Wind Gust Humidity Rainfall Rate (Hourly)
00:00 49.9 °F 43.3 °F 29.98 in Calm     78% 0.00 in
00:05 49.6 °F 43.4 °F 29.98 in Calm     79% 0.00 in
00:10 49.6 °F 43.4 °F 29.98 in Calm     79% 0.00 in
00:15 49.5 °F 42.9 °F 29.98 in Calm     78% 0.00 in
00:20 49.5 °F 42.9 °F 29.98 in Calm     78% 0.00 in
00:25 49.6 °F 43.0 °F 29.98 in Calm     78% 0.00 in
00:30 49.6 °F 43.0 °F 29.98 in Calm     78% 0.00 in
00:35 49.7 °F 43.1 °F 29.97 in Calm     78% 0.00 in
00:40 49.4 °F 42.8 °F 29.97 in Calm     78% 0.00 in
00:45 49.1 °F 42.9 °F 29.97 in Calm     79% 0.00 in
00:50 48.9 °F 42.7 °F 29.97 in Calm     79% 0.00 in
00:55 48.7 °F 42.8 °F 29.97 in Calm     80% 0.00 in
01:00 48.4 °F 42.5 °F 29.97 in Calm     80% 0.00 in
01:05 48.2 °F 42.6 °F 29.97 in Calm     81% 0.00 in
01:10 48.1 °F 42.5 °F 29.96 in Calm     81% 0.00 in
01:15 47.9 °F 42.3 °F 29.96 in Calm     81% 0.00 in
01:20 47.6 °F 42.4 °F 29.97 in Calm     82% 0.00 in
01:25 47.5 °F 42.3 °F 29.96 in Calm     82% 0.00 in
01:30 47.3 °F 42.4 °F 29.96 in Calm     83% 0.00 in
01:35 47.1 °F 42.2 °F 29.96 in Calm     83% 0.00 in
01:40 47.0 °F 42.4 °F 29.96 in Calm     84% 0.00 in
01:45 46.8 °F 42.2 °F 29.96 in Calm     84% 0.00 in
01:50 46.9 °F 42.3 °F 29.96 in Calm     84% 0.00 in
01:55 46.9 °F 42.3 °F 29.96 in Calm     84% 0.00 in
02:00 46.9 °F 42.6 °F 29.96 in Calm     85% 0.00 in
02:05 46.9 °F 42.3 °F 29.96 in Calm     84% 0.00 in
02:10 46.7 °F 42.1 °F 29.96 in Calm     84% 0.00 in
02:15 46.5 °F 42.2 °F 29.96 in Calm     85% 0.00 in
02:20 46.5 °F 42.2 °F 29.96 in Calm     85% 0.00 in
02:25 46.5 °F 42.2 °F 29.96 in Calm     85% 0.00 in
02:30 46.7 °F 42.4 °F 29.96 in Calm     85% 0.00 in
02:35 46.4 °F 42.1 °F 29.95 in Calm     85% 0.00 in
02:40 46.5 °F 42.5 °F 29.96 in Calm     86% 0.00 in
02:45 46.6 °F 42.3 °F 29.96 in Calm     85% 0.00 in
02:50 46.5 °F 42.2 °F 29.95 in Calm     85% 0.00 in
02:55 46.6 °F 42.3 °F 29.95 in Calm     85% 0.00 in
03:00 46.7 °F 42.4 °F 29.95 in Calm     85% 0.00 in
03:05 46.6 °F 42.3 °F 29.95 in Calm     85% 0.00 in
03:10 46.5 °F 42.2 °F 29.95 in Calm     85% 0.00 in
03:15 46.7 °F 42.4 °F 29.95 in Calm     85% 0.00 in
03:20 46.7 °F 42.4 °F 29.95 in Calm     85% 0.00 in
03:25 46.6 °F 42.3 °F 29.95 in Calm     85% 0.00 in
03:30 46.4 °F 42.1 °F 29.95 in Calm     85% 0.00 in
03:35 46.3 °F 42.0 °F 29.95 in Calm     85% 0.00 in
03:40 46.1 °F 41.8 °F 29.95 in Calm     85% 0.00 in
03:45 46.3 °F 42.3 °F 29.94 in Calm     86% 0.00 in
03:50 46.3 °F 42.3 °F 29.94 in Calm     86% 0.00 in
03:55 46.2 °F 42.2 °F 29.94 in Calm     86% 0.00 in
04:00 46.0 °F 42.0 °F 29.94 in Calm     86% 0.00 in
04:05 45.7 °F 42.1 °F 29.94 in Calm     87% 0.00 in
04:10 45.8 °F 42.2 °F 29.94 in Calm     87% 0.00 in
04:15 45.7 °F 42.1 °F 29.94 in Calm     87% 0.00 in
04:20 45.8 °F 41.9 °F 29.94 in Calm     86% 0.00 in
04:25 45.7 °F 42.1 °F 29.94 in Calm     87% 0.00 in
04:30 45.5 °F 41.9 °F 29.94 in Calm     87% 0.00 in
04:35 45.6 °F 42.0 °F 29.94 in Calm     87% 0.00 in
04:40 45.6 °F 42.0 °F 29.94 in Calm     87% 0.00 in
04:45 45.6 °F 42.0 °F 29.94 in Calm     87% 0.00 in
04:50 45.5 °F 41.9 °F 29.94 in Calm     87% 0.00 in
04:55 45.6 °F 42.3 °F 29.94 in Calm     88% 0.00 in
05:00 45.8 °F 42.4 °F 29.94 in Calm     88% 0.00 in
05:05 46.0 °F 42.3 °F 29.93 in Calm     87% 0.00 in
05:10 46.3 °F 42.6 °F 29.94 in Calm     87% 0.00 in
05:15 46.5 °F 42.8 °F 29.94 in Calm     87% 0.00 in
05:20 46.4 °F 42.4 °F 29.94 in Calm     86% 0.00 in
05:25 46.4 °F 42.4 °F 29.94 in Calm     86% 0.00 in
05:30 46.5 °F 42.5 °F 29.94 in Calm     86% 0.00 in
05:35 46.7 °F 42.7 °F 29.94 in Calm     86% 0.00 in
05:40 47.0 °F 43.0 °F 29.94 in Calm     86% 0.00 in
05:45 47.1 °F 42.8 °F 29.94 in Calm     85% 0.00 in
05:50 47.2 °F 42.9 °F 29.94 in Calm     85% 0.00 in
05:55 47.2 °F 42.9 °F 29.94 in Calm     85% 0.00 in
06:00 47.3 °F 43.0 °F 29.94 in Calm     85% 0.00 in
06:05 47.6 °F 43.3 °F 29.94 in Calm     85% 0.00 in
06:10 47.7 °F 43.4 °F 29.93 in Calm     85% 0.00 in
06:15 47.8 °F 43.5 °F 29.93 in Calm     85% 0.00 in
06:20 48.1 °F 43.8 °F 29.93 in Calm   2.0 mph 85% 0.00 in
06:25 49.0 °F 44.7 °F 29.92 in Calm   4.0 mph 85% 0.00 in
06:30 49.6 °F 44.6 °F 29.92 in Calm   2.0 mph 83% 0.00 in
06:35 49.9 °F 44.6 °F 29.93 in Calm   2.0 mph 82% 0.00 in
06:40 50.1 °F 44.8 °F 29.93 in Calm   1.0 mph 82% 0.00 in
06:45 50.3 °F 45.0 °F 29.93 in Calm   2.0 mph 82% 0.00 in
06:50 50.6 °F 45.3 °F 29.93 in Calm   2.0 mph 82% 0.00 in
06:55 51.1 °F 45.5 °F 29.93 in South 1.0 mph 2.0 mph 81% 0.00 in
07:00 51.6 °F 45.6 °F 29.93 in South 2.0 mph 3.0 mph 80% 0.00 in
07:05 52.1 °F 45.8 °F 29.93 in South 1.0 mph 4.0 mph 79% 0.00 in
07:10 52.5 °F 46.2 °F 29.92 in Calm   2.0 mph 79% 0.00 in
07:15 52.9 °F 46.2 °F 29.92 in SSW 1.0 mph 3.0 mph 78% 0.00 in
07:20 53.4 °F 46.7 °F 29.92 in Calm   1.0 mph 78% 0.00 in
07:25 53.7 °F 46.7 °F 29.93 in SSW 2.0 mph 2.0 mph 77% 0.00 in
07:30 54.0 °F 47.0 °F 29.93 in Calm   3.0 mph 77% 0.00 in
07:35 54.2 °F 47.1 °F 29.93 in SSW 1.0 mph 3.0 mph 77% 0.00 in
07:40 54.3 °F 46.9 °F 29.93 in SSW 1.0 mph 3.0 mph 76% 0.00 in
07:45 54.6 °F 47.2 °F 29.93 in Calm   3.0 mph 76% 0.00 in
07:50 55.1 °F 47.7 °F 29.93 in Calm   3.0 mph 76% 0.00 in
07:55 55.9 °F 48.1 °F 29.93 in Calm   3.0 mph 75% 0.00 in
08:00 56.7 °F 48.5 °F 29.93 in SSW 1.0 mph 1.0 mph 74% 0.00 in
08:05 57.1 °F 48.9 °F 29.93 in SW 1.0 mph 3.0 mph 74% 0.00 in
08:10 57.9 °F 49.7 °F 29.93 in SW 1.0 mph 3.0 mph 74% 0.00 in
08:15 58.6 °F 49.6 °F 29.93 in SW 3.0 mph 4.0 mph 72% 0.00 in
08:20 59.3 °F 49.1 °F 29.92 in Calm   5.0 mph 69% 0.00 in
08:25 59.8 °F 49.2 °F 29.92 in SW 2.0 mph 7.0 mph 68% 0.00 in
08:30 60.2 °F 49.6 °F 29.92 in SW 2.0 mph 5.0 mph 68% 0.00 in
08:35 60.6 °F 50.0 °F 29.92 in WSW 2.0 mph 5.0 mph 68% 0.00 in
08:40 61.0 °F 50.0 °F 29.92 in WSW 1.0 mph 4.0 mph 67% 0.00 in
08:45 61.5 °F 49.6 °F 29.92 in WSW 1.0 mph 6.0 mph 65% 0.00 in
08:50 62.0 °F 49.7 °F 29.93 in SW 3.0 mph 7.0 mph 64% 0.00 in
08:55 62.1 °F 49.8 °F 29.92 in West 2.0 mph 7.0 mph 64% 0.00 in
09:00 62.3 °F 49.5 °F 29.92 in WSW 2.0 mph 8.0 mph 63% 0.00 in
09:05 63.1 °F 51.1 °F 29.92 in WSW 4.0 mph 8.0 mph 65% 0.00 in
09:10 63.3 °F 50.1 °F 29.92 in SW 3.0 mph 8.0 mph 62% 0.00 in
09:15 63.5 °F 50.2 °F 29.92 in SW 3.0 mph 10.0 mph 62% 0.00 in
09:20 63.4 °F 50.1 °F 29.92 in WSW 4.0 mph 10.0 mph 62% 0.00 in
09:25 63.8 °F 50.1 °F 29.92 in SW 6.0 mph 10.0 mph 61% 0.00 in
09:30 63.8 °F 50.1 °F 29.92 in SW 5.0 mph 10.0 mph 61% 0.00 in
09:35 64.3 °F 49.7 °F 29.92 in SW 2.0 mph 10.0 mph 59% 0.00 in
09:40 64.2 °F 49.1 °F 29.92 in SW 3.0 mph 11.0 mph 58% 0.00 in
09:45 64.2 °F 49.6 °F 29.92 in WSW 6.0 mph 10.0 mph 59% 0.00 in
09:50 64.8 °F 51.0 °F 29.92 in WSW 5.0 mph 8.0 mph 61% 0.00 in
09:55 64.0 °F 49.4 °F 29.92 in WSW 5.0 mph 12.0 mph 59% 0.00 in
10:00 64.0 °F 49.8 °F 29.92 in SW 5.0 mph 12.0 mph 60% 0.00 in
10:05 64.2 °F 50.0 °F 29.92 in SW 5.0 mph 10.0 mph 60% 0.00 in
10:10 64.6 °F 50.8 °F 29.92 in SW 5.0 mph 10.0 mph 61% 0.00 in
10:15 64.6 °F 49.5 °F 29.92 in SW 4.0 mph 11.0 mph 58% 0.00 in
10:20 64.0 °F 49.4 °F 29.92 in WSW 5.0 mph 11.0 mph 59% 0.00 in
10:25 63.9 °F 49.3 °F 29.92 in WSW 2.0 mph 10.0 mph 59% 0.00 in
10:30 64.1 °F 49.5 °F 29.92 in West 5.0 mph 10.0 mph 59% 0.00 in
10:35 64.5 °F 49.8 °F 29.92 in SW 5.0 mph 11.0 mph 59% 0.00 in
10:40 64.3 °F 49.2 °F 29.92 in WSW 7.0 mph 12.0 mph 58% 0.00 in
10:45 64.6 °F 49.9 °F 29.92 in WSW 6.0 mph 11.0 mph 59% 0.00 in
10:50 64.5 °F 49.8 °F 29.93 in West 7.0 mph 9.0 mph 59% 0.00 in
10:55 64.4 °F 49.3 °F 29.92 in WSW 7.0 mph 11.0 mph 58% 0.00 in
11:00 64.7 °F 49.1 °F 29.93 in WSW 5.0 mph 11.0 mph 57% 0.00 in
11:05 64.3 °F 48.7 °F 29.92 in WSW 5.0 mph 14.0 mph 57% 0.00 in
11:10 64.3 °F 48.7 °F 29.92 in West 7.0 mph 12.0 mph 57% 0.00 in
11:15 64.5 °F 49.4 °F 29.91 in WSW 10.0 mph 14.0 mph 58% 0.00 in
11:20 65.3 °F 49.7 °F 29.91 in SW 9.0 mph 12.0 mph 57% 0.00 in
11:25 65.8 °F 50.1 °F 29.91 in West 4.0 mph 12.0 mph 57% 0.00 in
11:30 66.1 °F 49.5 °F 29.91 in WSW 6.0 mph 12.0 mph 55% 0.00 in
11:35 66.6 °F 50.4 °F 29.91 in WSW 6.0 mph 12.0 mph 56% 0.00 in
11:40 66.8 °F 49.6 °F 29.91 in WSW 6.0 mph 12.0 mph 54% 0.00 in
11:45 67.0 °F 51.3 °F 29.91 in WSW 7.0 mph 15.0 mph 57% 0.00 in
11:50 67.4 °F 50.7 °F 29.90 in WSW 6.0 mph 15.0 mph 55% 0.00 in
11:55 67.7 °F 50.9 °F 29.90 in West 4.0 mph 10.0 mph 55% 0.00 in
12:00 67.2 °F 49.5 °F 29.90 in West 3.0 mph 10.0 mph 53% 0.00 in
12:05 67.4 °F 50.7 °F 29.90 in WSW 6.0 mph 10.0 mph 55% 0.00 in
12:10 68.2 °F 50.4 °F 29.90 in West 3.0 mph 10.0 mph 53% 0.00 in
12:15 68.5 °F 52.2 °F 29.90 in WNW 4.0 mph 9.0 mph 56% 0.00 in
12:20 68.4 °F 50.6 °F 29.90 in SW 1.0 mph 10.0 mph 53% 0.00 in
12:25 68.2 °F 49.9 °F 29.89 in WSW 6.0 mph 10.0 mph 52% 0.00 in
12:30 68.5 °F 52.2 °F 29.89 in WSW 5.0 mph 10.0 mph 56% 0.00 in
12:35 68.7 °F 50.9 °F 29.89 in WSW 5.0 mph 11.0 mph 53% 0.00 in
12:40 68.8 °F 51.0 °F 29.89 in SW 6.0 mph 12.0 mph 53% 0.00 in
12:45 69.4 °F 51.0 °F 29.88 in West 3.0 mph 8.0 mph 52% 0.00 in
12:55 70.0 °F 50.0 °F 29.88 in West 5.0 mph 13.0 mph 49% 0.00 in
13:00 69.7 °F 51.8 °F 29.88 in WSW 6.0 mph 11.0 mph 53% 0.00 in
13:05 69.5 °F 52.6 °F 29.88 in West 6.0 mph 11.0 mph 55% 0.00 in
13:10 70.1 °F 51.1 °F 29.87 in SSW 3.0 mph 7.0 mph 51% 0.00 in
13:15 69.8 °F 50.3 °F 29.87 in WSW 6.0 mph 9.0 mph 50% 0.00 in
13:20 69.8 °F 50.9 °F 29.87 in WSW 4.0 mph 8.0 mph 51% 0.00 in
13:25 70.5 °F 53.6 °F 29.87 in West 5.0 mph 9.0 mph 55% 0.00 in
13:30 71.0 °F 51.4 °F 29.87 in West 4.0 mph 11.0 mph 50% 0.00 in
13:35 71.3 °F 53.8 °F 29.87 in West 4.0 mph 11.0 mph 54% 0.00 in
13:40 70.9 °F 53.4 °F 29.86 in West 5.0 mph 8.0 mph 54% 0.00 in
13:45 71.1 °F 51.5 °F 29.86 in SW 3.0 mph 9.0 mph 50% 0.00 in
13:50 71.3 °F 52.8 °F 29.86 in WSW 6.0 mph 8.0 mph 52% 0.00 in
13:55 70.9 °F 53.4 °F 29.86 in WSW 4.0 mph 8.0 mph 54% 0.00 in
14:00 71.4 °F 53.4 °F 29.86 in WSW 4.0 mph 10.0 mph 53% 0.00 in
14:05 71.8 °F 52.2 °F 29.86 in West 2.0 mph 9.0 mph 50% 0.00 in
14:10 72.1 °F 50.8 °F 29.85 in SSW 4.0 mph 8.0 mph 47% 0.00 in
14:15 71.1 °F 49.8 °F 29.85 in SSW 4.0 mph 8.0 mph 47% 0.00 in
14:20 71.5 °F 50.8 °F 29.85 in SW 9.0 mph 9.0 mph 48% 0.00 in
14:25 71.9 °F 52.8 °F 29.85 in SW 4.0 mph 9.0 mph 51% 0.00 in
14:30 71.9 °F 50.6 °F 29.85 in SW 4.0 mph 10.0 mph 47% 0.00 in
14:35 71.8 °F 51.0 °F 29.84 in WSW 5.0 mph 9.0 mph 48% 0.00 in
14:40 72.4 °F 49.9 °F 29.84 in WNW 5.0 mph 7.0 mph 45% 0.00 in
14:45 72.3 °F 49.2 °F 29.83 in West 4.0 mph 7.0 mph 44% 0.00 in
14:50 72.8 °F 52.0 °F 29.83 in West 4.0 mph 7.0 mph 48% 0.00 in
14:55 72.0 °F 48.3 °F 29.83 in WSW 3.0 mph 8.0 mph 43% 0.00 in
15:00 72.3 °F 49.2 °F 29.83 in SW 4.0 mph 8.0 mph 44% 0.00 in
15:05 73.2 °F 48.7 °F 29.83 in WSW 4.0 mph 8.0 mph 42% 0.00 in
15:10 73.1 °F 48.0 °F 29.83 in SW 5.0 mph 7.0 mph 41% 0.00 in
15:15 73.2 °F 48.7 °F 29.82 in WSW 2.0 mph 8.0 mph 42% 0.00 in
15:20 73.0 °F 47.9 °F 29.82 in WSW 4.0 mph 11.0 mph 41% 0.00 in
15:25 72.3 °F 49.2 °F 29.82 in West 4.0 mph 6.0 mph 44% 0.00 in
15:30 73.2 °F 48.7 °F 29.81 in South 1.0 mph 7.0 mph 42% 0.00 in
15:35 74.0 °F 49.4 °F 29.82 in WSW 3.0 mph 5.0 mph 42% 0.00 in
15:40 74.8 °F 52.0 °F 29.81 in NW 4.0 mph 8.0 mph 45% 0.00 in
15:45 74.7 °F 50.1 °F 29.81 in West 1.0 mph 7.0 mph 42% 0.00 in
15:50 74.3 °F 49.7 °F 29.81 in WNW 3.0 mph 8.0 mph 42% 0.00 in
15:55 74.6 °F 49.3 °F 29.81 in WNW 3.0 mph 8.0 mph 41% 0.00 in
16:00 74.7 °F 53.7 °F 29.81 in West 2.0 mph 6.0 mph 48% 0.00 in
16:05 74.5 °F 49.2 °F 29.81 in West 2.0 mph 6.0 mph 41% 0.00 in
16:10 74.5 °F 51.2 °F 29.80 in WNW 2.0 mph 6.0 mph 44% 0.00 in
16:15 75.1 °F 52.9 °F 29.80 in West 4.0 mph 7.0 mph 46% 0.00 in
16:20 75.0 °F 50.3 °F 29.79 in WNW 4.0 mph 7.0 mph 42% 0.00 in
16:25 74.4 °F 53.4 °F 29.79 in NW 3.0 mph 6.0 mph 48% 0.00 in
16:30 74.2 °F 49.0 °F 29.79 in WSW 1.0 mph 7.0 mph 41% 0.00 in
16:35 74.0 °F 48.8 °F 29.79 in SW 4.0 mph 5.0 mph 41% 0.00 in
16:40 73.8 °F 49.3 °F 29.79 in SSE 2.0 mph 6.0 mph 42% 0.00 in
16:45 74.0 °F 50.7 °F 29.78 in NE 4.0 mph 7.0 mph 44% 0.00 in
16:50 74.3 °F 52.8 °F 29.78 in East 3.0 mph 7.0 mph 47% 0.00 in
16:55 74.8 °F 48.9 °F 29.78 in SE 2.0 mph 5.0 mph 40% 0.00 in
17:00 74.9 °F 50.9 °F 29.77 in West 1.0 mph 4.0 mph 43% 0.00 in
17:05 74.7 °F 50.1 °F 29.77 in WNW 4.0 mph 5.0 mph 42% 0.00 in
17:10 74.1 °F 48.9 °F 29.77 in North 2.0 mph 5.0 mph 41% 0.00 in
17:15 74.8 °F 52.6 °F 29.77 in NW 2.0 mph 5.0 mph 46% 0.00 in
17:20 74.2 °F 48.3 °F 29.77 in West 2.0 mph 5.0 mph 40% 0.00 in
17:25 75.0 °F 51.6 °F 29.76 in WSW 2.0 mph 4.0 mph 44% 0.00 in
17:30 75.1 °F 51.7 °F 29.76 in West 2.0 mph 5.0 mph 44% 0.00 in
17:35 75.0 °F 50.3 °F 29.76 in NE 1.0 mph 4.0 mph 42% 0.00 in
17:40 74.7 °F 50.7 °F 29.76 in East 1.0 mph 8.0 mph 43% 0.00 in
17:45 74.8 °F 49.5 °F 29.76 in ENE 3.0 mph 8.0 mph 41% 0.00 in
17:50 74.5 °F 49.2 °F 29.76 in ESE 2.0 mph 5.0 mph 41% 0.00 in
17:55 74.7 °F 50.1 °F 29.76 in SSW 3.0 mph 6.0 mph 42% 0.00 in
18:00 74.4 °F 50.4 °F 29.76 in WNW 3.0 mph 3.0 mph 43% 0.00 in
18:05 74.5 °F 49.9 °F 29.76 in NW 3.0 mph 4.0 mph 42% 0.00 in
18:10 74.4 °F 50.4 °F 29.76 in East 2.0 mph 7.0 mph 43% 0.00 in
18:15 74.3 °F 50.4 °F 29.76 in NE 3.0 mph 7.0 mph 43% 0.00 in
18:20 73.8 °F 51.7 °F 29.76 in NE 2.0 mph 7.0 mph 46% 0.00 in
18:25 73.7 °F 50.4 °F 29.75 in North 2.0 mph 4.0 mph 44% 0.00 in
18:30 74.0 °F 51.3 °F 29.75 in NNE 1.0 mph 4.0 mph 45% 0.00 in
18:35 74.0 °F 50.7 °F 29.75 in ENE 4.0 mph 7.0 mph 44% 0.00 in
18:40 73.7 °F 51.0 °F 29.75 in ENE 4.0 mph 5.0 mph 45% 0.00 in
18:45 73.9 °F 50.6 °F 29.75 in ENE 2.0 mph 5.0 mph 44% 0.00 in
18:50 73.8 °F 51.1 °F 29.75 in NE 7.0 mph 8.0 mph 45% 0.00 in
18:55 73.5 °F 50.9 °F 29.75 in Calm   7.0 mph 45% 0.00 in
19:00 73.3 °F 51.3 °F 29.75 in Calm   2.0 mph 46% 0.00 in
19:05 73.2 °F 50.6 °F 29.75 in NE 2.0 mph 7.0 mph 45% 0.00 in
19:10 72.9 °F 50.3 °F 29.75 in NE 2.0 mph 7.0 mph 45% 0.00 in
19:15 72.4 °F 50.4 °F 29.75 in North 1.0 mph 3.0 mph 46% 0.00 in
19:20 72.5 °F 50.5 °F 29.75 in North 1.0 mph 3.0 mph 46% 0.00 in
19:25 72.7 °F 50.7 °F 29.75 in NNE 2.0 mph 5.0 mph 46% 0.00 in
19:30 72.2 °F 49.7 °F 29.74 in NE 3.0 mph 5.0 mph 45% 0.00 in
19:35 72.1 °F 50.8 °F 29.74 in NE 4.0 mph 6.0 mph 47% 0.00 in
19:40 72.2 °F 49.7 °F 29.75 in NE 2.0 mph 6.0 mph 45% 0.00 in
19:45 72.2 °F 49.7 °F 29.75 in NE 3.0 mph 9.0 mph 45% 0.00 in
19:50 72.1 °F 50.2 °F 29.75 in ENE 3.0 mph 8.0 mph 46% 0.00 in
19:55 71.9 °F 50.0 °F 29.75 in NE 2.0 mph 10.0 mph 46% 0.00 in
20:00 71.6 °F 49.7 °F 29.74 in NE 1.0 mph 9.0 mph 46% 0.00 in
20:05 70.9 °F 50.2 °F 29.74 in NE 2.0 mph 3.0 mph 48% 0.00 in
20:10 70.6 °F 50.0 °F 29.74 in NE 1.0 mph 3.0 mph 48% 0.00 in
20:15 70.4 °F 50.3 °F 29.74 in NE 2.0 mph 4.0 mph 49% 0.00 in
20:20 70.3 °F 49.7 °F 29.74 in NE 2.0 mph 4.0 mph 48% 0.00 in
20:25 70.1 °F 49.5 °F 29.74 in NE 2.0 mph 6.0 mph 48% 0.00 in
20:30 70.0 °F 49.4 °F 29.74 in NE 3.0 mph 6.0 mph 48% 0.00 in
20:35 69.6 °F 49.6 °F 29.74 in NE 2.0 mph 6.0 mph 49% 0.00 in
20:40 69.4 °F 49.9 °F 29.74 in NE 4.0 mph 6.0 mph 50% 0.00 in
20:45 69.3 °F 49.9 °F 29.75 in NE 3.0 mph 8.0 mph 50% 0.00 in
20:50 69.0 °F 50.6 °F 29.75 in ENE 2.0 mph 5.0 mph 52% 0.00 in
20:55 68.8 °F 51.5 °F 29.75 in ENE 10.0 mph 12.0 mph 54% 0.00 in
21:00 68.5 °F 51.7 °F 29.75 in NE 4.0 mph 10.0 mph 55% 0.00 in
21:05 68.1 °F 52.3 °F 29.75 in NE 4.0 mph 10.0 mph 57% 0.00 in
21:10 67.7 °F 52.4 °F 29.75 in NE 4.0 mph 10.0 mph 58% 0.00 in
21:15 67.2 °F 52.4 °F 29.75 in NE 3.0 mph 9.0 mph 59% 0.00 in
21:20 67.1 °F 52.7 °F 29.75 in NE 3.0 mph 11.0 mph 60% 0.00 in
21:25 66.8 °F 52.9 °F 29.76 in NE 4.0 mph 11.0 mph 61% 0.00 in
21:30 66.4 °F 53.0 °F 29.75 in NE 2.0 mph 6.0 mph 62% 0.00 in
21:35 66.1 °F 52.7 °F 29.76 in NNE 3.0 mph 8.0 mph 62% 0.00 in
21:40 65.9 °F 52.5 °F 29.75 in NE 3.0 mph 8.0 mph 62% 0.00 in
21:45 65.8 °F 52.4 °F 29.76 in ENE 7.0 mph 11.0 mph 62% 0.00 in
21:50 65.7 °F 52.3 °F 29.76 in NE 3.0 mph 11.0 mph 62% 0.00 in
21:55 65.4 °F 52.5 °F 29.76 in ENE 5.0 mph 9.0 mph 63% 0.00 in
22:00 65.3 °F 52.4 °F 29.76 in NE 5.0 mph 10.0 mph 63% 0.00 in
22:05 65.1 °F 52.2 °F 29.76 in NE 5.0 mph 9.0 mph 63% 0.00 in
22:10 64.9 °F 52.4 °F 29.76 in NE 4.0 mph 9.0 mph 64% 0.00 in
22:15 64.6 °F 52.1 °F 29.76 in NE 4.0 mph 8.0 mph 64% 0.00 in
22:20 64.5 °F 52.5 °F 29.76 in ENE 4.0 mph 7.0 mph 65% 0.00 in
22:25 64.4 °F 52.4 °F 29.75 in NE 4.0 mph 9.0 mph 65% 0.00 in
22:30 64.3 °F 52.3 °F 29.75 in East 3.0 mph 9.0 mph 65% 0.00 in
22:35 64.1 °F 52.1 °F 29.75 in ENE 2.0 mph 7.0 mph 65% 0.00 in
22:40 64.1 °F 52.1 °F 29.75 in NE 3.0 mph 8.0 mph 65% 0.00 in
22:45 63.9 °F 51.9 °F 29.75 in NE 2.0 mph 5.0 mph 65% 0.00 in
22:50 64.0 °F 52.0 °F 29.75 in ENE 3.0 mph 7.0 mph 65% 0.00 in
22:55 63.9 °F 51.9 °F 29.75 in ENE 2.0 mph 8.0 mph 65% 0.00 in
23:00 63.9 °F 51.5 °F 29.75 in NE 3.0 mph 9.0 mph 64% 0.00 in
23:05 63.7 °F 51.3 °F 29.74 in ENE 3.0 mph 10.0 mph 64% 0.00 in
23:10 63.6 °F 51.2 °F 29.74 in ENE 3.0 mph 10.0 mph 64% 0.00 in
23:15 63.5 °F 51.1 °F 29.74 in ENE 4.0 mph 9.0 mph 64% 0.00 in
23:20 63.4 °F 51.0 °F 29.74 in ENE 4.0 mph 8.0 mph 64% 0.00 in
23:25 63.3 °F 50.9 °F 29.73 in ENE 4.0 mph 8.0 mph 64% 0.00 in
23:30 63.1 °F 50.7 °F 29.74 in ENE 3.0 mph 8.0 mph 64% 0.00 in
23:35 63.0 °F 50.6 °F 29.73 in East 3.0 mph 8.0 mph 64% 0.00 in
23:40 62.9 °F 51.0 °F 29.73 in ENE 1.0 mph 6.0 mph 65% 0.00 in
23:45 62.7 °F 50.8 °F 29.74 in East 1.0 mph 6.0 mph 65% 0.00 in
23:50 62.7 °F 50.8 °F 29.73 in East 5.0 mph 8.0 mph 65% 0.00 in
23:55 62.5 °F 50.6 °F 29.73 in East 3.0 mph 8.0 mph 65% 0.00 in
Buffalo, New York, USA
Compliments of Weather Underground - 2.5 mb